Francitas, Texas
Current Conditions -  °F | °C
As of 1:53 AM on Friday 24 Oct 2014 (Local Time) from KPSX Reporting Station
Clear Clear  
Wind Chill: 61°   Ceiling: Unl
Heat Index: 61°   Visibility: 10mi
Dew Point: 57°   Wind: 6mph
Humidity: 87%   Direction: 40°NE
Pressure: 30.09"   Gusts: NA
Location:  28.86°N, 96.34°W
Report Text: KPSX 240653Z AUTO 04005KT 10SM CLR 16/14 A3009 RMK AO2 SLP190 T01610139
Loading
Personal Weather Stations






























Interactive Weather Map
Tropical Storm Tracking
New forecast layout! Learn more

10-Day Weather Forecast

Advertisements
Track Severe Weather on mobile